Main page
METAR-TAF:

METAR-TAF

Airports :

Altenstadt Air Base

Altenstadt, Germany

latitude: 47-50N, longitude: 010-52E, elevation: 739 m

Current weather observation

The report was made 24 minutes ago, at 12:20 UTC
Wind 10 kt from the East/Northeast
Temperature 16°C
Humidity 59%
Pressure 1019 hPa
Visibility 10 km or more
Broken clouds at a height of 30000 ft

METAR: ETHA 181220Z 07010KT 9999 BKN300 16/08 Q1019 BLU+BLU+

Time: 14:44 (12:44 UTC)

Forecast

The report was made 2 hours and 24 minutes ago, at 10:20 UTC
Forecast valid from 18 at 11 UTC to 18 at 20 UTC
Wind 8 kt from the East/Northeast
Visibility 10 km or more
Few clouds at a height of 15000 ft
Scattered clouds at a height of 30000 ft

TAF: ETHA 181020Z 1811/1820 07008KT 9999 NSW FEW150 SCT300

Weather observations and forecasts of more than 4000 airports (METAR and TAF reports).

The available stations are represented by yellow and red dots on the map.

Hover mouse over dot to see the name of the station.

Then click to see weather observations and forecasts.

To change the map : click on the green buttons with a black cross to zoom in, on the green button with a dash to zoom out, or on the green arrows for adjacent maps.


METAR-TAF: